Time,TemperatureF,DewpointF,PressureIn,WindDirection,WindDirectionDegrees,WindSpeedMPH,WindSpeedGustMPH,Humidity,HourlyPrecipIn,Conditions,Clouds,dailyrainin,SoftwareType,DateUTC
2013-04-12 00:00:00,63.2,21.4,29.62,WNW,290,0.0,0.0,20,0.00,,,0.00,Wunderground v.1.15,2013-04-12 06:00:00,
2013-04-12 00:05:00,63.1,21.3,29.61,WNW,290,0.0,0.0,20,0.00,,,0.00,Wunderground v.1.15,2013-04-12 06:05:00,
2013-04-12 00:15:00,62.9,22.3,29.62,WNW,290,0.0,0.0,21,0.00,,,0.00,Wunderground v.1.15,2013-04-12 06:15:00,
2013-04-12 00:20:00,62.9,22.3,29.62,NW,324,0.0,0.0,21,0.00,,,0.00,Wunderground v.1.15,2013-04-12 06:20:00,
2013-04-12 00:25:00,62.9,22.3,29.62,NW,315,0.0,0.0,21,0.00,,,0.00,Wunderground v.1.15,2013-04-12 06:25:00,
2013-04-12 00:30:00,62.8,22.2,29.61,NW,316,0.0,0.0,21,0.00,,,0.00,Wunderground v.1.15,2013-04-12 06:30:00,
2013-04-12 00:40:00,62.7,22.2,29.61,NW,315,0.0,0.0,21,0.00,,,0.00,Wunderground v.1.15,2013-04-12 06:40:00,
2013-04-12 00:45:00,62.7,22.2,29.62,NW,316,0.0,0.0,21,0.00,,,0.00,Wunderground v.1.15,2013-04-12 06:45:00,
2013-04-12 00:50:00,62.5,22.0,29.62,NW,315,0.0,0.0,21,0.00,,,0.00,Wunderground v.1.15,2013-04-12 06:50:00,
2013-04-12 00:55:00,62.4,21.9,29.62,NW,316,0.0,0.0,21,0.00,,,0.00,Wunderground v.1.15,2013-04-12 06:55:00,
2013-04-12 01:00:00,62.2,21.7,29.62,NW,315,0.0,0.0,21,0.00,,,0.00,Wunderground v.1.15,2013-04-12 07:00:00,
2013-04-12 01:05:00,62.0,21.6,29.61,NW,316,0.0,0.0,21,0.00,,,0.00,Wunderground v.1.15,2013-04-12 07:05:00,
2013-04-12 01:15:00,61.6,21.2,29.61,NW,316,0.0,0.0,21,0.00,,,0.00,Wunderground v.1.15,2013-04-12 07:15:00,
2013-04-12 01:20:00,61.3,21.0,29.62,NW,315,0.0,0.0,21,0.00,,,0.00,Wunderground v.1.15,2013-04-12 07:20:00,
2013-04-12 01:25:00,61.0,21.8,29.62,NW,315,0.0,0.0,22,0.00,,,0.00,Wunderground v.1.15,2013-04-12 07:25:00,
2013-04-12 01:30:00,60.7,21.6,29.61,NW,316,0.0,0.0,22,0.00,,,0.00,Wunderground v.1.15,2013-04-12 07:30:00,
2013-04-12 01:35:00,60.3,21.2,29.61,NW,315,0.0,0.0,22,0.00,,,0.00,Wunderground v.1.15,2013-04-12 07:35:00,
2013-04-12 01:45:00,59.6,20.7,29.61,NW,316,0.0,0.0,22,0.00,,,0.00,Wunderground v.1.15,2013-04-12 07:45:00,
2013-04-12 01:50:00,59.3,20.4,29.62,NW,316,0.0,0.0,22,0.00,,,0.00,Wunderground v.1.15,2013-04-12 07:50:00,
2013-04-12 01:55:00,59.0,21.2,29.62,NW,316,0.0,0.0,23,0.00,,,0.00,Wunderground v.1.15,2013-04-12 07:55:00,
2013-04-12 02:00:00,58.9,21.1,29.62,NW,316,0.0,0.0,23,0.00,,,0.00,Wunderground v.1.15,2013-04-12 08:00:00,
2013-04-12 02:05:00,58.5,20.8,29.62,NW,316,0.0,0.0,23,0.00,,,0.00,Wunderground v.1.15,2013-04-12 08:05:00,
2013-04-12 02:15:00,58.1,20.4,29.62,NW,316,0.0,0.0,23,0.00,,,0.00,Wunderground v.1.15,2013-04-12 08:15:00,
2013-04-12 02:25:00,57.7,21.1,29.62,NNE,14,0.0,0.0,24,0.00,,,0.00,Wunderground v.1.15,2013-04-12 08:25:00,
2013-04-12 02:30:00,57.6,21.0,29.62,NNE,15,0.0,0.0,24,0.00,,,0.00,Wunderground v.1.15,2013-04-12 08:30:00,
2013-04-12 02:35:00,57.4,21.8,29.63,NNE,15,0.0,0.0,25,0.00,,,0.00,Wunderground v.1.15,2013-04-12 08:35:00,
2013-04-12 02:40:00,57.3,21.7,29.63,NNE,14,0.0,0.0,25,0.00,,,0.00,Wunderground v.1.15,2013-04-12 08:40:00,
2013-04-12 02:45:00,57.2,21.6,29.63,NNE,18,0.0,0.0,25,0.00,,,0.00,Wunderground v.1.15,2013-04-12 08:45:00,
2013-04-12 02:55:00,57.1,21.6,29.62,North,355,0.0,0.0,25,0.00,,,0.00,Wunderground v.1.15,2013-04-12 08:55:00,
2013-04-12 03:00:00,57.1,21.6,29.62,NNE,14,0.0,0.0,25,0.00,,,0.00,Wunderground v.1.15,2013-04-12 09:00:00,
2013-04-12 03:05:00,56.9,21.4,29.61,North,355,0.0,0.0,25,0.00,,,0.00,Wunderground v.1.15,2013-04-12 09:05:00,
2013-04-12 03:15:00,56.5,22.0,29.61,North,355,0.0,0.0,26,0.00,,,0.00,Wunderground v.1.15,2013-04-12 09:15:00,
2013-04-12 03:20:00,56.2,21.7,29.61,North,355,0.0,0.0,26,0.00,,,0.00,Wunderground v.1.15,2013-04-12 09:20:00,
2013-04-12 03:25:00,56.0,21.6,29.61,North,355,0.0,0.0,26,0.00,,,0.00,Wunderground v.1.15,2013-04-12 09:25:00,
2013-04-12 03:30:00,55.8,22.3,29.61,North,355,0.0,0.0,27,0.00,,,0.00,Wunderground v.1.15,2013-04-12 09:30:00,
2013-04-12 03:35:00,55.5,22.0,29.62,North,355,0.0,0.0,27,0.00,,,0.00,Wunderground v.1.15,2013-04-12 09:35:00,
2013-04-12 03:40:00,55.1,21.7,29.62,North,355,0.0,0.0,27,0.00,,,0.00,Wunderground v.1.15,2013-04-12 09:40:00,
2013-04-12 03:45:00,54.8,22.3,29.62,North,355,0.0,0.0,28,0.00,,,0.00,Wunderground v.1.15,2013-04-12 09:45:00,
2013-04-12 03:50:00,54.5,22.0,29.62,North,349,0.0,0.0,28,0.00,,,0.00,Wunderground v.1.15,2013-04-12 09:50:00,
2013-04-12 03:55:00,54.3,22.7,29.62,NNW,336,0.0,0.0,29,0.00,,,0.00,Wunderground v.1.15,2013-04-12 09:55:00,
2013-04-12 04:05:00,54.3,24.3,29.63,NNW,340,0.0,0.0,31,0.00,,,0.00,Wunderground v.1.15,2013-04-12 10:05:00,
2013-04-12 04:15:00,54.3,25.0,29.63,NNW,346,0.0,0.0,32,0.00,,,0.00,Wunderground v.1.15,2013-04-12 10:15:00,
2013-04-12 04:20:00,54.2,23.4,29.64,NNW,346,0.0,0.0,30,0.00,,,0.00,Wunderground v.1.15,2013-04-12 10:20:00,
2013-04-12 04:25:00,53.9,22.3,29.64,NNW,346,0.0,0.0,29,0.00,,,0.00,Wunderground v.1.15,2013-04-12 10:25:00,
2013-04-12 04:30:00,53.4,21.9,29.65,NNW,346,0.0,0.0,29,0.00,,,0.00,Wunderground v.1.15,2013-04-12 10:30:00,
2013-04-12 04:35:00,52.6,21.2,29.65,NNW,346,0.0,0.0,29,0.00,,,0.00,Wunderground v.1.15,2013-04-12 10:35:00,
2013-04-12 04:40:00,52.3,20.9,29.65,NNW,346,0.0,0.0,29,0.00,,,0.00,Wunderground v.1.15,2013-04-12 10:40:00,
2013-04-12 04:45:00,52.2,21.7,29.66,North,355,0.0,0.0,30,0.00,,,0.00,Wunderground v.1.15,2013-04-12 10:45:00,
2013-04-12 04:50:00,51.7,21.2,29.66,North,355,0.0,0.0,30,0.00,,,0.00,Wunderground v.1.15,2013-04-12 10:50:00,
2013-04-12 05:00:00,51.4,22.5,29.66,North,355,0.0,0.0,32,0.00,,,0.00,Wunderground v.1.15,2013-04-12 11:00:00,
2013-04-12 05:05:00,51.3,22.4,29.67,North,355,0.0,0.0,32,0.00,,,0.00,Wunderground v.1.15,2013-04-12 11:05:00,
2013-04-12 05:15:00,51.0,22.9,29.67,NNE,18,0.0,0.0,33,0.00,,,0.00,Wunderground v.1.15,2013-04-12 11:15:00,
2013-04-12 05:20:00,50.8,22.7,29.67,NNE,18,0.0,0.0,33,0.00,,,0.00,Wunderground v.1.15,2013-04-12 11:20:00,
2013-04-12 05:25:00,50.8,22.7,29.67,NNE,18,0.0,0.0,33,0.00,,,0.00,Wunderground v.1.15,2013-04-12 11:25:00,
2013-04-12 05:30:00,50.7,22.6,29.67,NNE,18,0.0,0.0,33,0.00,,,0.00,Wunderground v.1.15,2013-04-12 11:30:00,
2013-04-12 05:35:00,50.6,22.5,29.68,NNE,18,0.0,0.0,33,0.00,,,0.00,Wunderground v.1.15,2013-04-12 11:35:00,
2013-04-12 05:40:00,50.5,22.4,29.67,NNE,18,0.0,0.0,33,0.00,,,0.00,Wunderground v.1.15,2013-04-12 11:40:00,
2013-04-12 05:45:00,50.5,22.4,29.67,NNE,18,0.0,0.0,33,0.00,,,0.00,Wunderground v.1.15,2013-04-12 11:45:00,
2013-04-12 05:50:00,50.3,22.3,29.68,NNE,18,0.0,0.0,33,0.00,,,0.00,Wunderground v.1.15,2013-04-12 11:50:00,
2013-04-12 06:00:00,50.1,22.1,29.69,NNE,18,0.0,0.0,33,0.00,,,0.00,Wunderground v.1.15,2013-04-12 12:00:00,
2013-04-12 06:05:00,50.0,22.0,29.69,NNE,18,0.0,0.0,33,0.00,,,0.00,Wunderground v.1.15,2013-04-12 12:05:00,
2013-04-12 06:15:00,49.7,21.7,29.70,NNE,18,0.0,0.0,33,0.00,,,0.00,Wunderground v.1.15,2013-04-12 12:15:00,
2013-04-12 06:25:00,49.4,22.2,29.70,NNE,18,0.0,0.0,34,0.00,,,0.00,Wunderground v.1.15,2013-04-12 12:25:00,
2013-04-12 06:30:00,49.2,22.7,29.70,NNE,18,0.0,0.0,35,0.00,,,0.00,Wunderground v.1.15,2013-04-12 12:30:00,
2013-04-12 06:35:00,49.1,22.6,29.70,NNE,18,0.0,0.0,35,0.00,,,0.00,Wunderground v.1.15,2013-04-12 12:35:00,
2013-04-12 06:45:00,48.7,22.2,29.71,NNE,18,0.0,0.0,35,0.00,,,0.00,Wunderground v.1.15,2013-04-12 12:45:00,
2013-04-12 06:50:00,48.5,22.1,29.71,NNE,18,0.0,0.0,35,0.00,,,0.00,Wunderground v.1.15,2013-04-12 12:50:00,
2013-04-12 06:55:00,48.3,21.9,29.72,NNE,18,0.0,0.0,35,0.00,,,0.00,Wunderground v.1.15,2013-04-12 12:55:00,
2013-04-12 07:05:00,48.1,21.0,29.74,NNE,18,0.0,0.0,34,0.00,,,0.00,Wunderground v.1.15,2013-04-12 13:05:00,
2013-04-12 07:15:00,48.0,21.6,29.74,NNE,18,0.0,0.0,35,0.00,,,0.00,Wunderground v.1.15,2013-04-12 13:15:00,
2013-04-12 07:20:00,48.1,21.7,29.74,NNE,18,0.0,0.0,35,0.00,,,0.00,Wunderground v.1.15,2013-04-12 13:20:00,
2013-04-12 07:25:00,48.3,23.8,29.74,NNE,18,0.0,0.0,38,0.00,,,0.00,Wunderground v.1.15,2013-04-12 13:25:00,
2013-04-12 07:30:00,48.7,23.6,29.74,NNE,18,0.0,0.0,37,0.00,,,0.00,Wunderground v.1.15,2013-04-12 13:30:00,
2013-04-12 07:40:00,49.6,24.4,29.74,NNE,14,0.0,0.0,37,0.00,,,0.00,Wunderground v.1.15,2013-04-12 13:40:00,
2013-04-12 07:45:00,50.1,24.8,29.74,NNE,14,0.0,0.0,37,0.00,,,0.00,Wunderground v.1.15,2013-04-12 13:45:00,
2013-04-12 07:50:00,50.8,25.4,29.74,NNE,14,0.0,0.0,37,0.00,,,0.00,Wunderground v.1.15,2013-04-12 13:50:00,
2013-04-12 07:55:00,51.5,25.4,29.74,NNE,14,0.0,0.0,36,0.00,,,0.00,Wunderground v.1.15,2013-04-12 13:55:00,
2013-04-12 08:00:00,52.0,25.2,29.73,NNE,14,0.0,0.0,35,0.00,,,0.00,Wunderground v.1.15,2013-04-12 14:00:00,
2013-04-12 08:05:00,52.6,26.4,29.73,NNE,14,0.0,0.0,36,0.00,,,0.00,Wunderground v.1.15,2013-04-12 14:05:00,
2013-04-12 08:15:00,53.7,27.4,29.73,NNE,14,0.0,0.0,36,0.00,,,0.00,Wunderground v.1.15,2013-04-12 14:15:00,
2013-04-12 08:20:00,54.5,26.0,29.73,NNE,14,0.0,0.0,33,0.00,,,0.00,Wunderground v.1.15,2013-04-12 14:20:00,
2013-04-12 08:25:00,55.4,26.0,29.73,NNE,14,0.0,0.0,32,0.00,,,0.00,Wunderground v.1.15,2013-04-12 14:25:00,
2013-04-12 08:30:00,56.4,24.5,29.72,NNE,14,0.0,0.0,29,0.00,,,0.00,Wunderground v.1.15,2013-04-12 14:30:00,
2013-04-12 08:40:00,58.2,23.4,29.72,NNE,14,0.0,0.0,26,0.00,,,0.00,Wunderground v.1.15,2013-04-12 14:40:00,
2013-04-12 08:45:00,59.0,23.2,29.72,NNE,14,0.0,0.0,25,0.00,,,0.00,Wunderground v.1.15,2013-04-12 14:45:00,
2013-04-12 08:55:00,59.8,21.9,29.71,NNE,14,0.0,0.0,23,0.00,,,0.00,Wunderground v.1.15,2013-04-12 14:55:00,
2013-04-12 09:00:00,60.1,21.1,29.71,NNE,14,0.0,0.0,22,0.00,,,0.00,Wunderground v.1.15,2013-04-12 15:00:00,
2013-04-12 09:05:00,60.4,21.3,29.72,NNW,342,0.0,0.0,22,0.00,,,0.00,Wunderground v.1.15,2013-04-12 15:05:00,
2013-04-12 09:15:00,61.0,22.9,29.72,North,5,0.0,0.0,23,0.00,,,0.00,Wunderground v.1.15,2013-04-12 15:15:00,
2013-04-12 09:20:00,61.6,22.3,29.71,NW,321,0.0,1.0,22,0.00,,,0.00,Wunderground v.1.15,2013-04-12 15:20:00,
2013-04-12 09:25:00,62.2,22.8,29.71,West,259,0.0,1.0,22,0.00,,,0.00,Wunderground v.1.15,2013-04-12 15:25:00,
2013-04-12 09:30:00,62.8,23.3,29.71,WSW,257,0.0,0.0,22,0.00,,,0.00,Wunderground v.1.15,2013-04-12 15:30:00,
2013-04-12 09:40:00,63.9,23.2,29.70,SW,229,0.0,0.0,21,0.00,,,0.00,Wunderground v.1.15,2013-04-12 15:40:00,
2013-04-12 09:50:00,65.0,24.1,29.70,SW,223,0.0,0.0,21,0.00,,,0.00,Wunderground v.1.15,2013-04-12 15:50:00,
2013-04-12 09:55:00,65.7,24.7,29.69,SW,224,0.0,0.0,21,0.00,,,0.00,Wunderground v.1.15,2013-04-12 15:55:00,
2013-04-12 10:00:00,66.3,26.3,29.69,NNW,338,0.0,0.0,22,0.00,,,0.00,Wunderground v.1.15,2013-04-12 16:00:00,
2013-04-12 10:05:00,66.9,25.7,29.70,NW,321,0.0,0.0,21,0.00,,,0.00,Wunderground v.1.15,2013-04-12 16:05:00,
2013-04-12 10:15:00,68.2,26.7,29.69,NW,310,0.0,0.0,21,0.00,,,0.00,Wunderground v.1.15,2013-04-12 16:15:00,
2013-04-12 10:25:00,69.4,26.6,29.69,North,5,0.0,0.0,20,0.00,,,0.00,Wunderground v.1.15,2013-04-12 16:25:00,
2013-04-12 10:30:00,69.9,28.2,29.68,West,281,0.0,0.0,21,0.00,,,0.00,Wunderground v.1.15,2013-04-12 16:30:00,
2013-04-12 10:35:00,70.4,28.6,29.68,West,281,0.0,0.0,21,0.00,,,0.00,Wunderground v.1.15,2013-04-12 16:35:00,
2013-04-12 10:40:00,70.9,29.0,29.68,West,281,0.0,0.0,21,0.00,,,0.00,Wunderground v.1.15,2013-04-12 16:40:00,
2013-04-12 10:45:00,71.6,29.6,29.67,West,281,0.0,0.0,21,0.00,,,0.00,Wunderground v.1.15,2013-04-12 16:45:00,
2013-04-12 10:55:00,72.3,30.1,29.67,West,281,0.0,0.0,21,0.00,,,0.00,Wunderground v.1.15,2013-04-12 16:55:00,
2013-04-12 11:00:00,72.5,30.3,29.67,West,281,0.0,0.0,21,0.00,,,0.00,Wunderground v.1.15,2013-04-12 17:00:00,
2013-04-12 11:05:00,72.2,28.9,29.67,West,281,0.0,0.0,20,0.00,,,0.00,Wunderground v.1.15,2013-04-12 17:05:00,
2013-04-12 11:15:00,72.5,31.5,29.66,West,281,0.0,1.0,22,0.00,,,0.00,Wunderground v.1.15,2013-04-12 17:15:00,
2013-04-12 11:20:00,72.3,30.1,29.67,West,273,0.0,0.0,21,0.00,,,0.00,Wunderground v.1.15,2013-04-12 17:20:00,
2013-04-12 11:25:00,72.4,29.0,29.67,West,269,0.0,0.0,20,0.00,,,0.00,Wunderground v.1.15,2013-04-12 17:25:00,
2013-04-12 11:30:00,72.3,30.1,29.67,South,180,0.0,0.0,21,0.00,,,0.00,Wunderground v.1.15,2013-04-12 17:30:00,
2013-04-12 11:35:00,72.5,30.3,29.66,South,181,0.0,0.0,21,0.00,,,0.00,Wunderground v.1.15,2013-04-12 17:35:00,
2013-04-12 11:40:00,72.4,30.2,29.67,South,181,0.0,0.0,21,0.00,,,0.00,Wunderground v.1.15,2013-04-12 17:40:00,
2013-04-12 11:45:00,72.4,30.2,29.67,SSW,211,0.0,0.0,21,0.00,,,0.00,Wunderground v.1.15,2013-04-12 17:45:00,
2013-04-12 11:50:00,72.0,29.9,29.66,SE,144,0.0,0.0,21,0.00,,,0.00,Wunderground v.1.15,2013-04-12 17:50:00,
2013-04-12 11:55:00,71.7,29.7,29.67,WSW,249,0.0,0.0,21,0.00,,,0.00,Wunderground v.1.15,2013-04-12 17:55:00,
2013-04-12 12:00:00,71.8,29.7,29.66,ESE,119,0.0,0.0,21,0.00,,,0.00,Wunderground v.1.15,2013-04-12 18:00:00,
2013-04-12 12:10:00,72.3,33.5,29.66,West,271,0.0,0.0,24,0.00,,,0.00,Wunderground v.1.15,2013-04-12 18:10:00,
2013-04-12 12:15:00,72.5,32.6,29.66,South,191,0.0,0.0,23,0.00,,,0.00,Wunderground v.1.15,2013-04-12 18:15:00,
2013-04-12 12:20:00,73.0,35.1,29.65,SE,132,0.0,0.0,25,0.00,,,0.00,Wunderground v.1.15,2013-04-12 18:20:00,
2013-04-12 12:30:00,74.0,33.8,29.64,East,90,0.0,0.0,23,0.00,,,0.00,Wunderground v.1.15,2013-04-12 18:30:00,
2013-04-12 13:30:00,72.3,30.1,29.66,SW,232,0.0,0.0,21,0.00,,,0.00,Wunderground v.1.15,2013-04-12 19:30:00,
2013-04-12 13:35:00,72.1,30.0,29.66,South,175,0.0,0.0,21,0.00,,,0.00,Wunderground v.1.15,2013-04-12 19:35:00,
2013-04-12 13:40:00,71.8,29.7,29.66,West,267,0.0,0.0,21,0.00,,,0.00,Wunderground v.1.15,2013-04-12 19:40:00,
2013-04-12 13:45:00,71.6,29.6,29.65,SSE,153,0.0,0.0,21,0.00,,,0.00,Wunderground v.1.15,2013-04-12 19:45:00,
2013-04-12 13:55:00,71.3,29.3,29.65,SW,216,0.0,0.0,21,0.00,,,0.00,Wunderground v.1.15,2013-04-12 19:55:00,
2013-04-12 14:00:00,71.3,29.3,29.65,SW,222,0.0,0.0,21,0.00,,,0.00,Wunderground v.1.15,2013-04-12 20:00:00,
2013-04-12 14:10:00,71.4,30.5,29.65,SW,227,0.0,0.0,22,0.00,,,0.00,Wunderground v.1.15,2013-04-12 20:10:00,
2013-04-12 14:15:00,71.6,29.6,29.65,SW,231,0.0,0.0,21,0.00,,,0.00,Wunderground v.1.15,2013-04-12 20:15:00,
2013-04-12 14:20:00,71.9,29.8,29.65,West,259,0.0,0.0,21,0.00,,,0.00,Wunderground v.1.15,2013-04-12 20:20:00,
2013-04-12 14:30:00,72.7,30.5,29.64,NW,319,0.0,0.0,21,0.00,,,0.00,Wunderground v.1.15,2013-04-12 20:30:00,
2013-04-12 14:35:00,73.3,31.0,29.63,NW,317,0.0,0.0,21,0.00,,,0.00,Wunderground v.1.15,2013-04-12 20:35:00,
2013-04-12 14:40:00,73.7,28.8,29.63,NW,319,0.0,0.0,19,0.00,,,0.00,Wunderground v.1.15,2013-04-12 20:40:00,
2013-04-12 14:45:00,74.3,29.3,29.63,NW,311,0.0,0.0,19,0.00,,,0.00,Wunderground v.1.15,2013-04-12 20:45:00,
2013-04-12 14:50:00,74.7,29.7,29.62,NW,310,0.0,0.0,19,0.00,,,0.00,Wunderground v.1.15,2013-04-12 20:50:00,
2013-04-12 14:55:00,75.0,28.6,29.62,NW,310,0.0,0.0,18,0.00,,,0.00,Wunderground v.1.15,2013-04-12 20:55:00,
2013-04-12 15:00:00,75.3,28.8,29.62,NW,311,0.0,0.0,18,0.00,,,0.00,Wunderground v.1.15,2013-04-12 21:00:00,
2013-04-12 15:05:00,75.4,28.9,29.64,NW,317,0.0,0.0,18,0.00,,,0.00,Wunderground v.1.15,2013-04-12 21:05:00,
2013-04-12 15:15:00,75.7,30.5,29.62,WNW,284,0.0,0.0,19,0.00,,,0.00,Wunderground v.1.15,2013-04-12 21:15:00,
2013-04-12 15:20:00,76.0,30.7,29.62,NNW,340,0.0,0.0,19,0.00,,,0.00,Wunderground v.1.15,2013-04-12 21:20:00,
2013-04-12 15:25:00,76.6,29.9,29.62,NW,308,0.0,0.0,18,0.00,,,0.00,Wunderground v.1.15,2013-04-12 21:25:00,
2013-04-12 15:35:00,77.4,30.5,29.62,NW,311,0.0,0.0,18,0.00,,,0.00,Wunderground v.1.15,2013-04-12 21:35:00,
2013-04-12 15:45:00,77.9,31.0,29.60,North,349,0.0,0.0,18,0.00,,,0.00,Wunderground v.1.15,2013-04-12 21:45:00,
2013-04-12 15:50:00,77.8,29.5,29.60,NNW,338,0.0,0.0,17,0.00,,,0.00,Wunderground v.1.15,2013-04-12 21:50:00,
2013-04-12 15:55:00,77.6,29.3,29.60,WNW,294,0.0,0.0,17,0.00,,,0.00,Wunderground v.1.15,2013-04-12 21:55:00,
2013-04-12 16:00:00,77.4,29.1,29.61,WNW,302,0.0,0.0,17,0.00,,,0.00,Wunderground v.1.15,2013-04-12 22:00:00,
2013-04-12 16:05:00,77.2,29.0,29.61,WNW,302,0.0,0.0,17,0.00,,,0.00,Wunderground v.1.15,2013-04-12 22:05:00,
2013-04-12 16:15:00,76.7,28.6,29.61,WNW,302,0.0,0.0,17,0.00,,,0.00,Wunderground v.1.15,2013-04-12 22:15:00,
2013-04-12 16:25:00,76.5,28.4,29.61,SSE,166,0.0,0.0,17,0.00,,,0.00,Wunderground v.1.15,2013-04-12 22:25:00,
2013-04-12 16:30:00,76.3,28.3,29.62,SSE,165,0.0,0.0,17,0.00,,,0.00,Wunderground v.1.15,2013-04-12 22:30:00,
2013-04-12 16:40:00,76.3,29.7,29.62,North,351,0.0,0.0,18,0.00,,,0.00,Wunderground v.1.15,2013-04-12 22:40:00,
2013-04-12 16:50:00,76.0,29.4,29.61,NNW,331,0.0,0.0,18,0.00,,,0.00,Wunderground v.1.15,2013-04-12 22:50:00,
2013-04-12 16:55:00,75.8,29.2,29.61,WNW,287,0.0,0.0,18,0.00,,,0.00,Wunderground v.1.15,2013-04-12 22:55:00,
2013-04-12 17:00:00,75.8,30.6,29.61,NNW,344,0.0,0.0,19,0.00,,,0.00,Wunderground v.1.15,2013-04-12 23:00:00,
2013-04-12 17:05:00,76.1,30.8,29.61,NW,318,0.0,0.0,19,0.00,,,0.00,Wunderground v.1.15,2013-04-12 23:05:00,
2013-04-12 17:15:00,76.5,29.8,29.61,WNW,298,0.0,0.0,18,0.00,,,0.00,Wunderground v.1.15,2013-04-12 23:15:00,
2013-04-12 17:20:00,76.6,28.5,29.60,WNW,298,0.0,0.0,17,0.00,,,0.00,Wunderground v.1.15,2013-04-12 23:20:00,
2013-04-12 17:25:00,76.5,28.4,29.60,WNW,284,0.0,0.0,17,0.00,,,0.00,Wunderground v.1.15,2013-04-12 23:25:00,
2013-04-12 17:30:00,76.0,28.0,29.60,SSW,192,0.0,0.0,17,0.00,,,0.00,Wunderground v.1.15,2013-04-12 23:30:00,
2013-04-12 17:35:00,75.8,29.2,29.60,WNW,284,0.0,0.0,18,0.00,,,0.00,Wunderground v.1.15,2013-04-12 23:35:00,
2013-04-12 17:40:00,75.6,29.1,29.60,NNW,331,0.0,0.0,18,0.00,,,0.00,Wunderground v.1.15,2013-04-12 23:40:00,
2013-04-12 17:50:00,75.2,28.8,29.61,WNW,296,0.0,0.0,18,0.00,,,0.00,Wunderground v.1.15,2013-04-12 23:50:00,
2013-04-12 17:55:00,74.9,29.8,29.61,NW,318,0.0,0.0,19,0.00,,,0.00,Wunderground v.1.15,2013-04-12 23:55:00,
2013-04-12 18:00:00,74.7,28.3,29.62,NW,318,0.0,0.0,18,0.00,,,0.00,Wunderground v.1.15,2013-04-13 00:00:00,
2013-04-12 18:10:00,74.2,27.9,29.63,WNW,292,0.0,0.0,18,0.00,,,0.00,Wunderground v.1.15,2013-04-13 00:10:00,
2013-04-12 18:15:00,73.7,27.5,29.63,West,280,0.0,0.0,18,0.00,,,0.00,Wunderground v.1.15,2013-04-13 00:15:00,
2013-04-12 18:25:00,73.2,28.4,29.64,NW,311,0.0,0.0,19,0.00,,,0.00,Wunderground v.1.15,2013-04-13 00:25:00,
2013-04-12 18:30:00,73.0,28.3,29.64,NW,312,0.0,0.0,19,0.00,,,0.00,Wunderground v.1.15,2013-04-13 00:30:00,
2013-04-12 18:35:00,72.9,26.9,29.63,West,281,0.0,0.0,18,0.00,,,0.00,Wunderground v.1.15,2013-04-13 00:35:00,
2013-04-12 18:40:00,72.6,26.6,29.63,WNW,296,0.0,0.0,18,0.00,,,0.00,Wunderground v.1.15,2013-04-13 00:40:00,
2013-04-12 18:45:00,72.5,27.9,29.63,NW,315,0.0,0.0,19,0.00,,,0.00,Wunderground v.1.15,2013-04-13 00:45:00,
2013-04-12 18:55:00,72.5,27.9,29.63,WNW,294,0.0,0.0,19,0.00,,,0.00,Wunderground v.1.15,2013-04-13 00:55:00,
2013-04-12 19:00:00,72.6,27.9,29.63,WNW,294,0.0,0.0,19,0.00,,,0.00,Wunderground v.1.15,2013-04-13 01:00:00,
2013-04-12 19:05:00,72.8,26.8,29.62,WNW,294,0.0,0.0,18,0.00,,,0.00,Wunderground v.1.15,2013-04-13 01:05:00,
2013-04-12 19:15:00,72.9,28.2,29.62,WNW,294,0.0,0.0,19,0.00,,,0.00,Wunderground v.1.15,2013-04-13 01:15:00,
2013-04-12 19:20:00,72.7,28.0,29.62,WNW,294,0.0,0.0,19,0.00,,,0.00,Wunderground v.1.15,2013-04-13 01:20:00,
2013-04-12 19:30:00,72.1,27.5,29.62,NW,307,0.0,0.0,19,0.00,,,0.00,Wunderground v.1.15,2013-04-13 01:30:00,
2013-04-12 19:35:00,71.7,27.2,29.62,NW,307,0.0,0.0,19,0.00,,,0.00,Wunderground v.1.15,2013-04-13 01:35:00,
2013-04-12 19:40:00,71.3,26.9,29.63,NW,307,0.0,0.0,19,0.00,,,0.00,Wunderground v.1.15,2013-04-13 01:40:00,
2013-04-12 19:45:00,71.0,26.6,29.63,NW,307,0.0,0.0,19,0.00,,,0.00,Wunderground v.1.15,2013-04-13 01:45:00,
2013-04-12 19:55:00,70.3,26.1,29.63,NW,307,0.0,0.0,19,0.00,,,0.00,Wunderground v.1.15,2013-04-13 01:55:00,
2013-04-12 20:05:00,69.3,26.5,29.61,NW,314,0.0,0.0,20,0.00,,,0.00,Wunderground v.1.15,2013-04-13 02:05:00,
2013-04-12 20:15:00,68.3,25.6,29.61,NW,314,0.0,0.0,20,0.00,,,0.00,Wunderground v.1.15,2013-04-13 02:15:00,
2013-04-12 20:20:00,67.9,26.5,29.61,NW,314,0.0,0.0,21,0.00,,,0.00,Wunderground v.1.15,2013-04-13 02:20:00,
2013-04-12 20:25:00,67.4,26.1,29.62,NW,314,0.0,0.0,21,0.00,,,0.00,Wunderground v.1.15,2013-04-13 02:25:00,
2013-04-12 20:30:00,67.1,25.8,29.63,NW,314,0.0,0.0,21,0.00,,,0.00,Wunderground v.1.15,2013-04-13 02:30:00,
2013-04-12 20:40:00,66.3,26.3,29.63,NW,314,0.0,0.0,22,0.00,,,0.00,Wunderground v.1.15,2013-04-13 02:40:00,
2013-04-12 20:45:00,66.0,26.0,29.63,NW,314,0.0,0.0,22,0.00,,,0.00,Wunderground v.1.15,2013-04-13 02:45:00,
2013-04-12 20:50:00,65.7,25.8,29.63,NW,314,0.0,0.0,22,0.00,,,0.00,Wunderground v.1.15,2013-04-13 02:50:00,
2013-04-12 20:55:00,65.4,25.5,29.64,NW,314,0.0,0.0,22,0.00,,,0.00,Wunderground v.1.15,2013-04-13 02:55:00,
2013-04-12 21:00:00,65.2,25.4,29.64,NW,314,0.0,0.0,22,0.00,,,0.00,Wunderground v.1.15,2013-04-13 03:00:00,
2013-04-12 21:05:00,64.8,25.0,29.61,NW,314,0.0,0.0,22,0.00,,,0.00,Wunderground v.1.15,2013-04-13 03:05:00,
2013-04-12 21:15:00,64.2,24.5,29.62,NW,314,0.0,0.0,22,0.00,,,0.00,Wunderground v.1.15,2013-04-13 03:15:00,
2013-04-12 21:20:00,63.9,25.3,29.61,NW,314,0.0,0.0,23,0.00,,,0.00,Wunderground v.1.15,2013-04-13 03:20:00,
2013-04-12 21:30:00,63.2,24.7,29.63,NW,314,0.0,0.0,23,0.00,,,0.00,Wunderground v.1.15,2013-04-13 03:30:00,
2013-04-12 21:35:00,62.9,24.5,29.63,NW,314,0.0,0.0,23,0.00,,,0.00,Wunderground v.1.15,2013-04-13 03:35:00,
2013-04-12 21:40:00,62.5,24.2,29.63,NNW,331,0.0,0.0,23,0.00,,,0.00,Wunderground v.1.15,2013-04-13 03:40:00,
2013-04-12 21:45:00,62.1,23.8,29.63,NNW,332,0.0,0.0,23,0.00,,,0.00,Wunderground v.1.15,2013-04-13 03:45:00,
2013-04-12 21:50:00,61.7,22.4,29.64,NNW,331,0.0,0.0,22,0.00,,,0.00,Wunderground v.1.15,2013-04-13 03:50:00,
2013-04-12 21:55:00,61.3,23.1,29.64,NNW,332,0.0,0.0,23,0.00,,,0.00,Wunderground v.1.15,2013-04-13 03:55:00,
2013-04-12 22:00:00,60.9,22.8,29.64,NNW,331,0.0,0.0,23,0.00,,,0.00,Wunderground v.1.15,2013-04-13 04:00:00,
2013-04-12 22:05:00,60.6,22.6,29.61,NNW,332,0.0,0.0,23,0.00,,,0.00,Wunderground v.1.15,2013-04-13 04:05:00,
2013-04-12 22:10:00,60.4,22.4,29.62,NNW,332,0.0,0.0,23,0.00,,,0.00,Wunderground v.1.15,2013-04-13 04:10:00,
2013-04-12 22:20:00,59.9,23.0,29.62,NNW,331,0.0,0.0,24,0.00,,,0.00,Wunderground v.1.15,2013-04-13 04:20:00,
2013-04-12 22:30:00,59.5,22.6,29.63,NNW,332,0.0,0.0,24,0.00,,,0.00,Wunderground v.1.15,2013-04-13 04:30:00,
2013-04-12 22:35:00,59.3,22.5,29.63,NNW,332,0.0,0.0,24,0.00,,,0.00,Wunderground v.1.15,2013-04-13 04:35:00,
2013-04-12 22:40:00,59.1,22.3,29.63,NNW,332,0.0,0.0,24,0.00,,,0.00,Wunderground v.1.15,2013-04-13 04:40:00,
2013-04-12 22:45:00,59.0,22.2,29.63,NNW,332,0.0,0.0,24,0.00,,,0.00,Wunderground v.1.15,2013-04-13 04:45:00,
2013-04-12 22:55:00,59.0,23.2,29.63,NNW,331,0.0,0.0,25,0.00,,,0.00,Wunderground v.1.15,2013-04-13 04:55:00,
2013-04-12 23:00:00,59.0,23.2,29.63,NNW,332,0.0,0.0,25,0.00,,,0.00,Wunderground v.1.15,2013-04-13 05:00:00,
2013-04-12 23:05:00,58.9,24.0,29.64,NNW,331,0.0,0.0,26,0.00,,,0.00,Wunderground v.1.15,2013-04-13 05:05:00,
2013-04-12 23:15:00,58.5,22.8,29.65,NW,323,0.0,1.0,25,0.00,,,0.00,Wunderground v.1.15,2013-04-13 05:15:00,
2013-04-12 23:25:00,58.1,21.4,29.64,NW,322,0.0,0.0,24,0.00,,,0.00,Wunderground v.1.15,2013-04-13 05:25:00,
2013-04-12 23:30:00,57.8,21.2,29.64,NW,323,0.0,0.0,24,0.00,,,0.00,Wunderground v.1.15,2013-04-13 05:30:00,
2013-04-12 23:40:00,57.5,20.9,29.65,NW,323,0.0,0.0,24,0.00,,,0.00,Wunderground v.1.15,2013-04-13 05:40:00,
2013-04-12 23:45:00,57.3,21.7,29.65,NW,322,0.0,0.0,25,0.00,,,0.00,Wunderground v.1.15,2013-04-13 05:45:00,
2013-04-12 23:50:00,57.2,22.6,29.65,NW,323,0.0,0.0,26,0.00,,,0.00,Wunderground v.1.15,2013-04-13 05:50:00,